メインページ
METAR-TAF:

METAR-TAF

空港 :

ロサンゼルス国際空港

ロサンゼルス, カリフォルニア州, アメリカ合衆国

緯度: 33-56-17N, 経度: 118-23-20W, 海抜: 38m

現時点の気象観測

当レポートは56分前の08:53(UTC)に作成
西/南西の風 8kt
気温 16°C
湿度 77%
気圧 1013 hPa
視程: 16.1km
高度1700ftの雲は散在している
高度2500ftの曇り

METAR: KLAX 200853Z 25008KT 10SM SCT017 OVC025 16/12 A2991 RMK AO2 SLP127 T01560117 58005

時間: 02:49 (09:49 UTC)

予報

当レポートは1時間9分前の08:40(UTC)に作成
予報は20日の 09時(UTC)から 21日の 12時(UTC)まで有効
西/南西の風 6kt
視程: 10km
高度1800ftの雲は散在している
高度2500ftの曇り
20日の 1400時(UTC)から
南東の風 6kt
視程: 10km
高度2200ftの曇り
20日の 2000時(UTC)から
西の風 10kt
視程: 10km
高度2500ftの千切れ雲あり
21日の 0000時(UTC)から
西の風 12kt
視程: 10km
高度2500ftの雲は散在している
21日の 0300時(UTC)から
西の風 8kt
視程: 10km
高度2500ftの千切れ雲あり

TAF: KLAX 200840Z 2009/2112 25006KT P6SM SCT018 OVC025 FM201400 14006KT P6SM OVC022 FM202000 26010KT P6SM BKN025 FM210000 26012KT P6SM SCT025 FM210300 26008KT P6SM BKN025

4,000以上の空港の気象観測と天気予報(METAR報とTAF報)

利用可能な観測所は地図上に黄色い丸と赤い丸で示す。

丸の上にカーソルを重ねると観測所名を参照できる。

次にクリックすると気象観測と天気予報を参照できる。

マップの切り替え:黒色「×」印の緑ボタンをクリックして拡大、「-」印の緑ボタンをクリックして縮小、緑色の三角印をクリックして隣りの地図に切り替え


METAR-TAF: